LOT9KB EPRZ-EPGD
Flight info
| Callsign | LOT9KB |
|---|---|
| Flight time | N/A |
| Altitude | 28000 |
| Route | ETITI L981 KOTEK N133 GRUDA/N0442F270 Z95 OSLOG |
| Aircraft | B738/M-SDE2E3FGHIRWXY/LB1 |
Departure
| Time | 2026-04-26 19:51 |
|---|---|
| Airport | Rzeszów-Jasionka Airport (EPRZ) |
Arrival
| Time | N/A |
|---|---|
| Airport | Gdańsk Lech Wałęsa Airport (EPGD) |
| Time | Latitude | Longitude | Altitude | Speed | Heading |
|---|---|---|---|---|---|
| 2026-04-26 19:42 | 50.11347 | 22.02509 | 685 ft | 0 kts | 96° |
| 2026-04-26 19:44 | 50.11346 | 22.02525 | 684 ft | 4 kts | 96° |
| 2026-04-26 19:45 | 50.11343 | 22.02558 | 686 ft | 0 kts | 96° |
| 2026-04-26 19:46 | 50.11341 | 22.02632 | 685 ft | 11 kts | 92° |
| 2026-04-26 19:47 | 50.11317 | 22.02710 | 683 ft | 11 kts | 140° |
| 2026-04-26 19:47 | 50.11263 | 22.02744 | 681 ft | 13 kts | 173° |
| 2026-04-26 19:47 | 50.11183 | 22.02744 | 685 ft | 8 kts | 182° |
| 2026-04-26 19:47 | 50.11043 | 22.02741 | 681 ft | 20 kts | 172° |
| 2026-04-26 19:48 | 50.10987 | 22.02911 | 685 ft | 20 kts | 92° |
| 2026-04-26 19:48 | 50.10988 | 22.03121 | 686 ft | 20 kts | 88° |
| 2026-04-26 19:48 | 50.10988 | 22.03361 | 683 ft | 26 kts | 95° |
| 2026-04-26 19:48 | 50.10980 | 22.03670 | 681 ft | 31 kts | 90° |
| 2026-04-26 19:49 | 50.10970 | 22.04002 | 679 ft | 30 kts | 92° |
| 2026-04-26 19:49 | 50.10968 | 22.04316 | 677 ft | 28 kts | 91° |
| 2026-04-26 19:49 | 50.10989 | 22.04545 | 679 ft | 16 kts | 64° |
| 2026-04-26 19:49 | 50.10981 | 22.04591 | 679 ft | 2 kts | 167° |
| 2026-04-26 19:50 | 50.10964 | 22.04488 | 673 ft | 0 kts | 272° |
| 2026-04-26 19:50 | 50.10968 | 22.04254 | 677 ft | 57 kts | 271° |
| 2026-04-26 19:51 | 50.10976 | 22.03219 | 684 ft | 131 kts | 271° |
| 2026-04-26 19:51 | 50.10995 | 22.01582 | 1080 ft | 155 kts | 270° |
| 2026-04-26 19:51 | 50.10948 | 21.99945 | 2082 ft | 151 kts | 271° |
| 2026-04-26 19:51 | 50.10751 | 21.98363 | 2844 ft | 150 kts | 263° |
| 2026-04-26 19:52 | 50.10419 | 21.96679 | 3051 ft | 179 kts | 259° |
| 2026-04-26 19:52 | 50.10038 | 21.94689 | 3363 ft | 197 kts | 261° |
| 2026-04-26 19:52 | 50.09749 | 21.92697 | 4294 ft | 175 kts | 270° |
| 2026-04-26 19:52 | 50.09672 | 21.90954 | 5225 ft | 156 kts | 279° |
| 2026-04-26 19:53 | 50.09780 | 21.89216 | 5614 ft | 170 kts | 286° |
| 2026-04-26 19:53 | 50.10066 | 21.87329 | 5950 ft | 183 kts | 292° |
| 2026-04-26 19:53 | 50.10456 | 21.85512 | 6691 ft | 170 kts | 296° |
| 2026-04-26 19:53 | 50.10882 | 21.83882 | 7496 ft | 158 kts | 300° |
| 2026-04-26 19:54 | 50.11358 | 21.82309 | 8050 ft | 165 kts | 302° |
| 2026-04-26 19:54 | 50.11897 | 21.80669 | 8481 ft | 178 kts | 298° |
| 2026-04-26 19:54 | 50.11981 | 21.78588 | 8633 ft | 209 kts | 268° |
| 2026-04-26 19:54 | 50.11771 | 21.76269 | 8800 ft | 227 kts | 271° |
| 2026-04-26 19:55 | 50.11633 | 21.73726 | 9048 ft | 241 kts | 273° |
| 2026-04-26 19:55 | 50.11544 | 21.71081 | 9557 ft | 245 kts | 274° |
| 2026-04-26 19:55 | 50.11495 | 21.68413 | 10150 ft | 247 kts | 276° |
| 2026-04-26 19:55 | 50.11472 | 21.65737 | 10713 ft | 247 kts | 277° |
| 2026-04-26 19:56 | 50.11490 | 21.63035 | 11309 ft | 243 kts | 284° |
| 2026-04-26 19:56 | 50.12133 | 21.60762 | 11870 ft | 230 kts | 313° |
| 2026-04-26 19:56 | 50.13314 | 21.59117 | 12491 ft | 227 kts | 328° |
| 2026-04-26 19:56 | 50.14712 | 21.57953 | 13097 ft | 228 kts | 334° |
| 2026-04-26 19:57 | 50.16177 | 21.56990 | 13731 ft | 229 kts | 336° |
| 2026-04-26 19:57 | 50.17672 | 21.56096 | 14328 ft | 230 kts | 337° |
| 2026-04-26 19:57 | 50.19169 | 21.55215 | 14900 ft | 230 kts | 337° |
| 2026-04-26 19:57 | 50.20671 | 21.54330 | 15475 ft | 231 kts | 336° |
| 2026-04-26 19:58 | 50.22178 | 21.53439 | 16053 ft | 231 kts | 336° |
| 2026-04-26 19:58 | 50.23687 | 21.52544 | 16637 ft | 232 kts | 336° |
| 2026-04-26 19:58 | 50.25199 | 21.51643 | 17188 ft | 233 kts | 336° |
| 2026-04-26 19:58 | 50.26719 | 21.50735 | 17758 ft | 234 kts | 336° |
| 2026-04-26 19:59 | 50.28242 | 21.49823 | 18329 ft | 234 kts | 336° |
| 2026-04-26 19:59 | 50.29753 | 21.48917 | 18827 ft | 236 kts | 336° |
| 2026-04-26 19:59 | 50.31311 | 21.47981 | 19276 ft | 238 kts | 336° |
| 2026-04-26 19:59 | 50.32842 | 21.47058 | 19714 ft | 240 kts | 335° |
| 2026-04-26 20:00 | 50.34411 | 21.46113 | 20154 ft | 242 kts | 335° |
| 2026-04-26 20:00 | 50.35990 | 21.45160 | 20593 ft | 244 kts | 335° |
| 2026-04-26 20:00 | 50.37585 | 21.44196 | 21015 ft | 246 kts | 335° |
| 2026-04-26 20:00 | 50.39184 | 21.43230 | 21452 ft | 248 kts | 335° |
| 2026-04-26 20:01 | 50.40805 | 21.42248 | 21870 ft | 250 kts | 334° |
| 2026-04-26 20:01 | 50.42436 | 21.41260 | 22277 ft | 252 kts | 334° |
| 2026-04-26 20:01 | 50.44076 | 21.40266 | 22688 ft | 254 kts | 334° |
| 2026-04-26 20:01 | 50.45733 | 21.39261 | 23096 ft | 256 kts | 334° |
| 2026-04-26 20:02 | 50.47401 | 21.38248 | 23482 ft | 258 kts | 334° |
| 2026-04-26 20:02 | 50.49083 | 21.37225 | 23863 ft | 260 kts | 334° |
| 2026-04-26 20:02 | 50.50775 | 21.36196 | 24186 ft | 262 kts | 334° |
| 2026-04-26 20:02 | 50.51351 | 21.35846 | 24286 ft | 262 kts | 334° |
| 2026-04-26 20:03 | 50.53615 | 21.34467 | 24711 ft | 264 kts | 334° |
| 2026-04-26 20:03 | 50.55359 | 21.33404 | 25023 ft | 266 kts | 334° |
| 2026-04-26 20:03 | 50.57092 | 21.32347 | 25329 ft | 268 kts | 334° |
| 2026-04-26 20:03 | 50.58835 | 21.31284 | 25632 ft | 269 kts | 333° |
| 2026-04-26 20:04 | 50.60586 | 21.30214 | 25930 ft | 271 kts | 333° |
| 2026-04-26 20:04 | 50.62345 | 21.29139 | 26219 ft | 272 kts | 333° |
| 2026-04-26 20:04 | 50.64127 | 21.28047 | 26239 ft | 278 kts | 333° |
| 2026-04-26 20:04 | 50.65937 | 21.26937 | 26251 ft | 279 kts | 334° |
| 2026-04-26 20:05 | 50.67736 | 21.25837 | 26249 ft | 275 kts | 333° |
| 2026-04-26 20:05 | 50.69511 | 21.24752 | 26241 ft | 271 kts | 333° |
| 2026-04-26 20:05 | 50.71272 | 21.23672 | 26251 ft | 272 kts | 333° |
| 2026-04-26 20:05 | 50.73047 | 21.22581 | 26261 ft | 273 kts | 333° |
| 2026-04-26 20:06 | 50.74798 | 21.21503 | 26261 ft | 274 kts | 333° |
| 2026-04-26 20:06 | 50.76603 | 21.20392 | 26257 ft | 275 kts | 333° |
| 2026-04-26 20:06 | 50.78389 | 21.19292 | 26256 ft | 275 kts | 333° |
| 2026-04-26 20:06 | 50.80165 | 21.18197 | 26247 ft | 273 kts | 333° |
| 2026-04-26 20:07 | 50.81918 | 21.17117 | 26232 ft | 273 kts | 333° |
| 2026-04-26 20:07 | 50.83686 | 21.16025 | 26227 ft | 273 kts | 333° |
| 2026-04-26 20:07 | 50.85354 | 21.14995 | 26230 ft | 273 kts | 333° |
| 2026-04-26 20:07 | 50.87103 | 21.13912 | 26222 ft | 274 kts | 333° |
| 2026-04-26 20:08 | 50.88878 | 21.12814 | 26210 ft | 274 kts | 333° |
| 2026-04-26 20:08 | 50.90647 | 21.11671 | 26207 ft | 272 kts | 329° |
| 2026-04-26 20:08 | 50.92260 | 21.10126 | 26190 ft | 270 kts | 323° |
| 2026-04-26 20:08 | 50.93797 | 21.08425 | 26183 ft | 269 kts | 322° |
| 2026-04-26 20:09 | 50.95314 | 21.06717 | 26178 ft | 269 kts | 322° |
| 2026-04-26 20:09 | 50.96843 | 21.04992 | 26180 ft | 269 kts | 322° |
| 2026-04-26 20:09 | 50.98366 | 21.03278 | 26044 ft | 268 kts | 322° |
| 2026-04-26 20:09 | 50.99870 | 21.01589 | 25784 ft | 258 kts | 322° |
| 2026-04-26 20:10 | 51.01310 | 20.99976 | 25520 ft | 249 kts | 322° |
| 2026-04-26 20:10 | 51.02706 | 20.98411 | 25196 ft | 242 kts | 322° |
| 2026-04-26 20:10 | 51.04055 | 20.96899 | 24812 ft | 238 kts | 322° |
| 2026-04-26 20:10 | 51.05398 | 20.95391 | 24430 ft | 235 kts | 322° |
| 2026-04-26 20:11 | 51.06728 | 20.93898 | 24046 ft | 232 kts | 322° |
| 2026-04-26 20:11 | 51.08088 | 20.92548 | 23745 ft | 229 kts | 334° |
| 2026-04-26 20:11 | 51.09613 | 20.91882 | 23466 ft | 225 kts | 341° |
| 2026-04-26 20:12 | 51.12707 | 20.91618 | 22902 ft | 217 kts | 349° |
| 2026-04-26 20:12 | 51.14199 | 20.91618 | 22624 ft | 211 kts | 349° |
| 2026-04-26 20:12 | 51.15657 | 20.91617 | 22358 ft | 208 kts | 349° |
| 2026-04-26 20:12 | 51.17093 | 20.91612 | 22092 ft | 204 kts | 349° |
| 2026-04-26 20:13 | 51.18485 | 20.91604 | 21832 ft | 201 kts | 349° |
| 2026-04-26 20:13 | 51.19875 | 20.91594 | 21577 ft | 198 kts | 349° |
| 2026-04-26 20:13 | 51.21247 | 20.91581 | 21314 ft | 197 kts | 349° |
| 2026-04-26 20:13 | 51.22621 | 20.91565 | 21074 ft | 199 kts | 350° |
| 2026-04-26 20:14 | 51.24022 | 20.91545 | 20836 ft | 203 kts | 350° |
| 2026-04-26 20:14 | 51.25430 | 20.91528 | 20583 ft | 202 kts | 350° |
| 2026-04-26 20:14 | 51.26828 | 20.91513 | 20339 ft | 200 kts | 350° |
| 2026-04-26 20:14 | 51.28209 | 20.91497 | 20067 ft | 199 kts | 350° |
| 2026-04-26 20:15 | 51.29596 | 20.91480 | 19759 ft | 199 kts | 351° |
| 2026-04-26 20:15 | 51.30980 | 20.91463 | 19430 ft | 197 kts | 351° |
| 2026-04-26 20:15 | 51.32349 | 20.91447 | 19110 ft | 195 kts | 351° |
| 2026-04-26 20:15 | 51.33697 | 20.91431 | 18796 ft | 192 kts | 351° |
| 2026-04-26 20:16 | 51.35009 | 20.91415 | 18490 ft | 190 kts | 351° |
| 2026-04-26 20:16 | 51.36317 | 20.91399 | 18148 ft | 186 kts | 351° |
| 2026-04-26 20:16 | 51.37597 | 20.91384 | 17837 ft | 182 kts | 351° |
| 2026-04-26 20:16 | 51.38857 | 20.91367 | 17548 ft | 182 kts | 351° |
| 2026-04-26 20:17 | 51.40130 | 20.91349 | 17261 ft | 183 kts | 351° |
| 2026-04-26 20:17 | 51.41423 | 20.91329 | 16941 ft | 187 kts | 351° |
| 2026-04-26 20:17 | 51.42738 | 20.91309 | 16633 ft | 190 kts | 352° |
| 2026-04-26 20:17 | 51.43620 | 20.91297 | 16415 ft | 192 kts | 352° |
| 2026-04-26 20:18 | 51.45402 | 20.91273 | 15994 ft | 194 kts | 352° |
| 2026-04-26 20:18 | 51.46746 | 20.91256 | 15672 ft | 192 kts | 352° |
| 2026-04-26 20:18 | 51.48075 | 20.91386 | 15362 ft | 193 kts | 1° |
| 2026-04-26 20:18 | 51.49384 | 20.91873 | 15053 ft | 193 kts | 4° |
| 2026-04-26 20:19 | 51.50688 | 20.92410 | 14687 ft | 193 kts | 4° |
| 2026-04-26 20:19 | 51.51987 | 20.92947 | 14339 ft | 192 kts | 5° |
| 2026-04-26 20:19 | 51.53284 | 20.93477 | 14001 ft | 192 kts | 5° |
| 2026-04-26 20:19 | 51.54576 | 20.94002 | 13599 ft | 192 kts | 5° |
| 2026-04-26 20:20 | 51.55874 | 20.94524 | 13216 ft | 192 kts | 5° |
| 2026-04-26 20:20 | 51.57170 | 20.95044 | 12836 ft | 192 kts | 5° |
| 2026-04-26 20:20 | 51.58496 | 20.95569 | 12494 ft | 202 kts | 6° |
| 2026-04-26 20:20 | 51.59959 | 20.96139 | 12247 ft | 225 kts | 7° |
| 2026-04-26 20:21 | 51.61498 | 20.96747 | 12057 ft | 230 kts | 7° |
| 2026-04-26 20:21 | 51.63021 | 20.97356 | 11868 ft | 226 kts | 7° |
| 2026-04-26 20:21 | 51.64519 | 20.97958 | 11667 ft | 217 kts | 7° |
| 2026-04-26 20:21 | 51.65963 | 20.98537 | 11423 ft | 210 kts | 7° |
| 2026-04-26 20:22 | 51.67363 | 20.99095 | 11161 ft | 205 kts | 7° |
| 2026-04-26 20:22 | 51.68739 | 20.99641 | 10905 ft | 200 kts | 7° |
| 2026-04-26 20:22 | 51.70057 | 21.00166 | 10734 ft | 191 kts | 7° |
| 2026-04-26 20:22 | 51.71346 | 21.00676 | 10400 ft | 191 kts | 7° |
| 2026-04-26 20:23 | 51.72646 | 21.01189 | 10066 ft | 191 kts | 7° |
| 2026-04-26 20:23 | 51.73942 | 21.01701 | 9700 ft | 191 kts | 8° |
| 2026-04-26 20:23 | 51.75210 | 21.02204 | 9360 ft | 190 kts | 8° |
| 2026-04-26 20:23 | 51.76507 | 21.02718 | 9013 ft | 189 kts | 8° |
| 2026-04-26 20:24 | 51.77766 | 21.03217 | 8677 ft | 189 kts | 8° |
| 2026-04-26 20:24 | 51.79037 | 21.03722 | 8358 ft | 188 kts | 8° |
| 2026-04-26 20:24 | 51.80308 | 21.04227 | 8025 ft | 187 kts | 9° |
| 2026-04-26 20:24 | 51.81574 | 21.04730 | 7690 ft | 187 kts | 9° |
| 2026-04-26 20:25 | 51.82838 | 21.05233 | 7377 ft | 186 kts | 9° |
| 2026-04-26 20:25 | 51.83665 | 21.05562 | 7173 ft | 185 kts | 9° |
| 2026-04-26 20:25 | 51.85334 | 21.06227 | 6753 ft | 184 kts | 9° |
| 2026-04-26 20:25 | 51.86569 | 21.06770 | 6509 ft | 182 kts | 19° |
| 2026-04-26 20:26 | 51.87535 | 21.08114 | 6245 ft | 193 kts | 50° |
| 2026-04-26 20:26 | 51.88208 | 21.10060 | 6047 ft | 197 kts | 54° |
| 2026-04-26 20:26 | 51.88856 | 21.12007 | 5839 ft | 200 kts | 54° |
| 2026-04-26 20:26 | 51.89515 | 21.13992 | 5625 ft | 200 kts | 54° |
| 2026-04-26 20:27 | 51.90175 | 21.15971 | 5411 ft | 197 kts | 51° |
| 2026-04-26 20:27 | 51.91126 | 21.17348 | 5242 ft | 175 kts | 14° |
| 2026-04-26 20:27 | 51.92268 | 21.17531 | 5132 ft | 158 kts | 348° |
| 2026-04-26 20:27 | 51.93269 | 21.16908 | 4965 ft | 153 kts | 331° |
| 2026-04-26 20:28 | 51.94211 | 21.16105 | 4788 ft | 153 kts | 333° |
| 2026-04-26 20:28 | 51.95158 | 21.15332 | 4593 ft | 151 kts | 335° |
| 2026-04-26 20:28 | 51.96096 | 21.14598 | 4424 ft | 149 kts | 334° |
| 2026-04-26 20:28 | 51.97023 | 21.13831 | 4256 ft | 149 kts | 333° |
| 2026-04-26 20:29 | 51.97943 | 21.13045 | 4095 ft | 148 kts | 333° |
| 2026-04-26 20:29 | 51.98844 | 21.12264 | 3912 ft | 149 kts | 333° |
| 2026-04-26 20:29 | 51.99760 | 21.11464 | 3726 ft | 149 kts | 333° |
| 2026-04-26 20:29 | 52.00675 | 21.10662 | 3550 ft | 151 kts | 333° |
| 2026-04-26 20:30 | 52.01601 | 21.09849 | 3359 ft | 151 kts | 333° |
| 2026-04-26 20:30 | 52.02523 | 21.09039 | 3165 ft | 150 kts | 333° |
| 2026-04-26 20:30 | 52.03434 | 21.08239 | 2977 ft | 148 kts | 333° |
| 2026-04-26 20:30 | 52.04332 | 21.07450 | 2791 ft | 147 kts | 334° |
| 2026-04-26 20:31 | 52.05194 | 21.06693 | 2681 ft | 131 kts | 334° |
| 2026-04-26 20:31 | 52.05975 | 21.06007 | 2583 ft | 126 kts | 334° |
| 2026-04-26 20:31 | 52.06729 | 21.05346 | 2430 ft | 124 kts | 334° |
| 2026-04-26 20:31 | 52.07494 | 21.04675 | 2248 ft | 123 kts | 334° |
| 2026-04-26 20:32 | 52.08251 | 21.04011 | 2076 ft | 124 kts | 334° |
| 2026-04-26 20:32 | 52.09013 | 21.03343 | 1906 ft | 125 kts | 334° |
| 2026-04-26 20:32 | 52.09779 | 21.02672 | 1702 ft | 125 kts | 334° |
| 2026-04-26 20:32 | 52.10547 | 21.01977 | 1467 ft | 129 kts | 333° |
| 2026-04-26 20:33 | 52.11339 | 21.01233 | 1342 ft | 136 kts | 333° |
| 2026-04-26 20:33 | 52.12196 | 21.00507 | 1201 ft | 143 kts | 333° |
| 2026-04-26 20:33 | 52.13038 | 20.99757 | 1009 ft | 131 kts | 332° |
| 2026-04-26 20:33 | 52.13823 | 20.99089 | 728 ft | 121 kts | 332° |
| 2026-04-26 20:34 | 52.14579 | 20.98413 | 555 ft | 123 kts | 332° |
| 2026-04-26 20:34 | 52.15321 | 20.97769 | 432 ft | 123 kts | 333° |
| 2026-04-26 20:34 | 52.16061 | 20.97147 | 363 ft | 105 kts | 331° |
| 2026-04-26 20:34 | 52.16515 | 20.96763 | 361 ft | 43 kts | 332° |
| 2026-04-26 20:35 | 52.16791 | 20.96545 | 365 ft | 56 kts | 346° |
| 2026-04-26 20:35 | 52.17051 | 20.96521 | 363 ft | 10 kts | 5° |
| 2026-04-26 20:35 | 52.17083 | 20.96546 | 360 ft | 13 kts | 54° |
| 2026-04-26 20:35 | 52.17113 | 20.96631 | 361 ft | 0 kts | 64° |
| 2026-04-26 20:36 | 52.17113 | 20.96632 | 361 ft | 0 kts | 64° |
| 2026-04-26 20:36 | 52.17135 | 20.96703 | 362 ft | 9 kts | 64° |
| 2026-04-26 20:37 | 52.17162 | 20.96792 | 362 ft | 9 kts | 64° |
| 2026-04-26 20:37 | 52.17166 | 20.96818 | 364 ft | 1 kts | 97° |
| 2026-04-26 20:37 | 52.17121 | 20.96883 | 361 ft | 16 kts | 160° |
| 2026-04-26 20:37 | 52.17101 | 20.96898 | 361 ft | 1 kts | 154° |
| 2026-04-26 20:38 | 52.17099 | 20.96899 | 361 ft | 0 kts | 154° |
| 2026-04-26 20:38 | 52.17096 | 20.96902 | 361 ft | 0 kts | 154° |
| 2026-04-26 20:38 | 52.17093 | 20.96904 | 361 ft | 0 kts | 154° |
| 2026-04-26 20:38 | 52.17090 | 20.96906 | 364 ft | 0 kts | 154° |
| 2026-04-26 20:39 | 52.17088 | 20.96907 | 363 ft | 0 kts | 154° |
| 2026-04-26 20:39 | 52.17087 | 20.96908 | 363 ft | 0 kts | 154° |
| 2026-04-26 20:39 | 52.17087 | 20.96909 | 363 ft | 0 kts | 154° |